createdAt,value
2023-01-25T00:01:56.176Z,17.17
2023-01-25T00:04:26.995Z,15.47
2023-01-25T00:06:57.916Z,15.17
2023-01-25T00:09:29.445Z,14.30
2023-01-25T00:11:59.959Z,14.10
2023-01-25T00:14:30.560Z,14.77
2023-01-25T00:17:03.250Z,14.27
2023-01-25T00:19:33.538Z,16.20
2023-01-25T00:22:03.735Z,13.73
2023-01-25T00:24:33.821Z,15.10
2023-01-25T00:27:04.896Z,15.03
2023-01-25T00:29:35.238Z,13.70
2023-01-25T00:32:44.220Z,16.40
2023-01-25T00:35:15.588Z,14.47
2023-01-25T00:37:50.642Z,15.30
2023-01-25T00:40:21.624Z,15.03
2023-01-25T00:42:51.717Z,15.03
2023-01-25T00:45:23.005Z,16.20
2023-01-25T00:47:58.631Z,14.73
2023-01-25T00:50:28.839Z,14.67
2023-01-25T00:53:00.448Z,14.07
2023-01-25T00:55:30.702Z,16.60
2023-01-25T00:58:00.923Z,16.80
2023-01-25T01:00:31.047Z,15.10
2023-01-25T01:03:04.004Z,13.53
2023-01-25T01:05:36.238Z,15.20
2023-01-25T01:08:07.068Z,16.90
2023-01-25T01:10:37.117Z,16.30
2023-01-25T01:13:07.437Z,13.77
2023-01-25T01:15:40.133Z,15.67
2023-01-25T01:18:12.728Z,16.53
2023-01-25T01:20:42.746Z,17.17
2023-01-25T01:23:12.818Z,16.30
2023-01-25T01:25:42.874Z,16.47
2023-01-25T01:28:13.198Z,17.00
2023-01-25T01:30:43.530Z,14.83
2023-01-25T01:33:16.678Z,15.20
2023-01-25T01:35:46.970Z,15.10
2023-01-25T01:38:17.055Z,18.00
2023-01-25T01:40:48.731Z,16.30
2023-01-25T01:43:22.874Z,15.57
2023-01-25T01:45:58.390Z,13.67
2023-01-25T01:48:44.094Z,16.17
2023-01-25T01:51:22.184Z,13.53
2023-01-25T01:53:58.551Z,15.73
2023-01-25T01:56:37.233Z,16.03
2023-01-25T01:59:09.873Z,17.33
2023-01-25T02:01:40.895Z,15.00
2023-01-25T02:04:16.974Z,14.63
2023-01-25T02:06:53.395Z,15.50
2023-01-25T02:09:28.863Z,14.50
2023-01-25T02:12:01.184Z,15.13
2023-01-25T02:14:34.222Z,14.20
2023-01-25T02:17:06.171Z,15.23
2023-01-25T02:19:53.441Z,14.50
2023-01-25T02:22:33.865Z,14.70
2023-01-25T02:25:11.122Z,13.47
2023-01-25T02:27:47.370Z,14.50
2023-01-25T02:30:18.372Z,14.03
2023-01-25T02:32:48.550Z,14.30
2023-01-25T02:35:24.915Z,14.00
2023-01-25T02:37:55.336Z,13.13
2023-01-25T02:40:27.977Z,15.23
2023-01-25T02:42:58.117Z,14.00
2023-01-25T02:45:33.012Z,14.27
2023-01-25T02:48:03.006Z,14.60
2023-01-25T02:50:33.193Z,16.67
2023-01-25T02:53:03.174Z,13.80
2023-01-25T02:55:36.068Z,15.67
2023-01-25T02:58:06.308Z,13.70
2023-01-25T03:00:36.556Z,15.00
2023-01-25T03:03:07.112Z,14.00
2023-01-25T03:05:37.741Z,13.33
2023-01-25T03:08:08.075Z,16.43
2023-01-25T03:10:40.737Z,15.30
2023-01-25T03:13:11.381Z,15.47
2023-01-25T03:15:41.914Z,15.30
2023-01-25T03:18:11.996Z,14.40
2023-01-25T03:20:42.033Z,13.90
2023-01-25T03:23:12.267Z,14.40
2023-01-25T03:25:44.955Z,13.00
2023-01-25T03:28:19.621Z,16.57
2023-01-25T03:30:56.198Z,13.83
2023-01-25T03:33:26.433Z,12.20
2023-01-25T03:35:57.740Z,12.50
2023-01-25T03:38:29.634Z,14.10
2023-01-25T03:41:04.655Z,14.83
2023-01-25T03:43:35.965Z,12.33
2023-01-25T03:46:06.889Z,12.60
2023-01-25T03:48:37.902Z,12.50
2023-01-25T03:51:09.015Z,15.70
2023-01-25T03:53:39.868Z,15.53
2023-01-25T03:56:20.602Z,13.73
2023-01-25T03:59:04.286Z,13.33
2023-01-25T04:01:36.232Z,14.00
2023-01-25T04:04:07.081Z,12.07
2023-01-25T04:06:38.108Z,12.97
2023-01-25T04:09:08.988Z,11.93
2023-01-25T04:11:45.880Z,13.00
2023-01-25T04:14:16.849Z,12.47
2023-01-25T04:16:59.864Z,12.90
2023-01-25T04:19:40.486Z,13.53
2023-01-25T04:22:14.407Z,12.40
2023-01-25T04:24:44.831Z,11.07
2023-01-25T04:27:18.583Z,10.63
2023-01-25T04:29:58.778Z,13.20
2023-01-25T04:32:30.411Z,12.33
2023-01-25T04:35:02.032Z,13.27
2023-01-25T04:37:33.271Z,10.90
2023-01-25T04:40:04.248Z,12.77
2023-01-25T04:42:41.823Z,11.90
2023-01-25T04:45:13.807Z,12.23
2023-01-25T04:47:44.385Z,11.93
2023-01-25T04:50:15.204Z,13.93
2023-01-25T04:52:45.491Z,11.33
2023-01-25T04:55:15.708Z,12.37
2023-01-25T04:57:52.871Z,12.93
2023-01-25T05:00:23.944Z,12.20
2023-01-25T05:02:54.343Z,12.53
2023-01-25T05:05:25.524Z,13.07
2023-01-25T05:07:57.737Z,12.03
2023-01-25T05:10:27.859Z,14.40
2023-01-25T05:13:32.862Z,11.73
2023-01-25T05:16:12.976Z,11.00
2023-01-25T05:18:48.829Z,12.73
2023-01-25T05:21:36.551Z,14.50
2023-01-25T05:24:07.966Z,12.77
2023-01-25T05:26:50.973Z,12.33
2023-01-25T05:29:23.685Z,11.97
2023-01-25T05:32:02.881Z,11.20
2023-01-25T05:34:33.456Z,11.73
2023-01-25T05:37:04.936Z,12.13
2023-01-25T05:39:35.272Z,11.70
2023-01-25T05:42:06.619Z,13.37
2023-01-25T05:44:39.688Z,12.97
2023-01-25T05:47:16.017Z,11.87
2023-01-25T05:49:47.085Z,11.40
2023-01-25T05:52:32.053Z,11.10
2023-01-25T05:55:02.836Z,10.63
2023-01-25T05:57:33.700Z,11.17
2023-01-25T06:00:09.796Z,12.17
2023-01-25T06:02:43.813Z,11.97
2023-01-25T06:05:19.307Z,11.43
2023-01-25T06:07:49.443Z,10.57
2023-01-25T06:10:21.276Z,13.30
2023-01-25T06:12:53.438Z,13.03
2023-01-25T06:15:26.280Z,11.77
2023-01-25T06:17:59.163Z,13.07
2023-01-25T06:20:43.244Z,11.50
2023-01-25T06:23:13.368Z,9.63
2023-01-25T06:25:43.617Z,11.40
2023-01-25T06:28:14.323Z,12.00
2023-01-25T06:30:47.000Z,13.00
2023-01-25T06:33:17.227Z,12.03
2023-01-25T06:35:47.582Z,13.63
2023-01-25T06:38:17.820Z,12.57
2023-01-25T06:40:48.001Z,12.40
2023-01-25T06:43:18.097Z,11.80
2023-01-25T06:45:50.922Z,12.63
2023-01-25T06:48:21.782Z,12.20
2023-01-25T06:50:58.156Z,13.13
2023-01-25T06:53:30.217Z,9.00
2023-01-25T06:56:02.709Z,12.13
2023-01-25T06:58:34.506Z,11.13
2023-01-25T07:01:11.637Z,11.80
2023-01-25T07:03:42.101Z,11.17
2023-01-25T07:06:14.601Z,12.60
2023-01-25T07:08:44.632Z,10.70
2023-01-25T07:11:16.701Z,10.37
2023-01-25T07:13:49.294Z,11.90
2023-01-25T07:16:23.445Z,11.63
2023-01-25T07:18:53.614Z,14.23
2023-01-25T07:21:26.504Z,12.20
2023-01-25T07:23:57.300Z,12.23
2023-01-25T07:26:29.216Z,12.57
2023-01-25T07:29:02.207Z,14.00
2023-01-25T07:31:35.365Z,12.00
2023-01-25T07:34:05.861Z,12.23
2023-01-25T07:36:36.290Z,13.57
2023-01-25T07:39:06.882Z,13.20
2023-01-25T07:41:37.029Z,12.03
2023-01-25T07:44:07.342Z,11.83
2023-01-25T07:46:44.687Z,11.83
2023-01-25T07:49:15.149Z,12.20
2023-01-25T07:51:45.163Z,11.77
2023-01-25T07:54:15.731Z,11.70
2023-01-25T07:56:45.872Z,12.73
2023-01-25T07:59:16.368Z,12.10
2023-01-25T08:01:49.246Z,12.83
2023-01-25T08:04:19.351Z,13.37
2023-01-25T08:06:49.575Z,12.10
2023-01-25T08:09:21.335Z,12.80
2023-01-25T08:11:53.651Z,12.90
2023-01-25T08:14:24.902Z,13.70
2023-01-25T08:16:57.742Z,12.53
2023-01-25T08:19:28.339Z,11.43
2023-01-25T08:21:58.406Z,11.60
2023-01-25T08:24:28.582Z,13.10
2023-01-25T08:26:58.691Z,11.07
2023-01-25T08:29:28.991Z,12.77
2023-01-25T08:32:04.527Z,12.57
2023-01-25T08:34:34.893Z,12.70
2023-01-25T08:37:05.332Z,12.97
2023-01-25T08:39:35.480Z,13.00
2023-01-25T08:42:06.351Z,13.80
2023-01-25T08:44:36.397Z,13.37
2023-01-25T08:47:09.000Z,12.50
2023-01-25T08:49:39.257Z,11.53
2023-01-25T08:52:10.096Z,12.10
2023-01-25T08:54:43.035Z,13.63
2023-01-25T08:57:15.114Z,14.00
2023-01-25T08:59:45.240Z,13.67
2023-01-25T09:02:19.582Z,13.83
2023-01-25T09:04:50.096Z,13.50
2023-01-25T09:07:20.402Z,13.10
2023-01-25T09:09:51.373Z,11.40
2023-01-25T09:12:21.546Z,12.07
2023-01-25T09:14:52.148Z,12.50
2023-01-25T09:17:25.575Z,13.70
2023-01-25T09:19:55.747Z,12.50
2023-01-25T09:22:25.886Z,12.73
2023-01-25T09:24:56.693Z,14.20
2023-01-25T09:27:27.226Z,12.70
2023-01-25T09:30:02.100Z,12.67
2023-01-25T09:32:36.252Z,14.70
2023-01-25T09:35:07.749Z,14.47
2023-01-25T09:37:39.044Z,14.03
2023-01-25T09:40:21.427Z,12.70
2023-01-25T09:43:04.364Z,13.03
2023-01-25T09:45:37.383Z,14.37
2023-01-25T09:49:06.337Z,15.60
2023-01-25T09:52:00.668Z,15.00
2023-01-25T09:54:42.320Z,13.63
2023-01-25T09:57:24.451Z,14.90
2023-01-25T09:59:57.125Z,13.50
2023-01-25T10:02:44.054Z,15.87
2023-01-25T10:05:25.916Z,13.53
2023-01-25T10:08:07.236Z,14.60
2023-01-25T10:10:42.572Z,11.90
2023-01-25T10:13:16.415Z,13.30
2023-01-25T10:15:53.625Z,12.40
2023-01-25T10:18:36.556Z,12.07
2023-01-25T10:21:21.643Z,11.20
2023-01-25T10:24:31.262Z,12.20
2023-01-25T10:27:19.775Z,11.43
2023-01-25T10:29:52.455Z,13.10
2023-01-25T10:32:28.737Z,12.40
2023-01-25T10:35:04.286Z,12.20
2023-01-25T10:37:39.032Z,11.53
2023-01-25T10:40:22.657Z,11.73
2023-01-25T10:43:00.036Z,12.53
2023-01-25T10:45:30.446Z,12.17
2023-01-25T10:48:10.181Z,12.90
2023-01-25T10:50:53.666Z,12.03
2023-01-25T10:53:36.918Z,11.20
2023-01-25T10:56:31.272Z,14.30
2023-01-25T10:59:21.652Z,12.27
2023-01-25T11:01:52.213Z,10.40
2023-01-25T11:04:39.929Z,12.27
2023-01-25T11:07:31.557Z,11.90
2023-01-25T11:10:04.604Z,12.30
2023-01-25T11:12:34.806Z,13.40
2023-01-25T11:15:28.920Z,11.83
2023-01-25T11:18:09.743Z,15.70
2023-01-25T11:20:40.029Z,7.77
2023-01-25T11:23:27.175Z,11.77
2023-01-25T11:26:16.773Z,12.77
2023-01-25T11:28:49.184Z,11.67
2023-01-25T11:31:23.304Z,11.80
2023-01-25T11:33:53.897Z,11.13
2023-01-25T11:36:36.408Z,11.53
2023-01-25T11:39:24.980Z,11.90
2023-01-25T11:42:15.654Z,12.90
2023-01-25T11:45:37.429Z,11.70
2023-01-25T11:48:31.593Z,14.10
2023-01-25T11:51:10.133Z,12.60
2023-01-25T11:54:03.906Z,12.60
2023-01-25T11:56:53.712Z,13.57
2023-01-25T11:59:53.401Z,12.43
2023-01-25T12:03:01.898Z,13.60
2023-01-25T12:05:51.369Z,12.83
2023-01-25T12:08:44.753Z,11.10
2023-01-25T12:11:36.053Z,13.93
2023-01-25T12:14:23.034Z,14.27
2023-01-25T12:17:35.622Z,14.47
2023-01-25T12:20:34.461Z,13.10
2023-01-25T12:23:34.158Z,14.70
2023-01-25T12:26:27.869Z,13.20
2023-01-25T12:29:13.416Z,16.00
2023-01-25T12:31:52.312Z,12.70
2023-01-25T12:34:36.091Z,13.23
2023-01-25T12:37:17.233Z,14.53
2023-01-25T12:39:55.301Z,14.13
2023-01-25T12:42:35.415Z,13.90
2023-01-25T12:45:17.106Z,12.87
2023-01-25T12:47:54.940Z,13.43
2023-01-25T12:50:36.266Z,13.80
2023-01-25T12:53:20.699Z,15.57
2023-01-25T12:55:52.769Z,14.40
2023-01-25T12:58:37.836Z,13.80
2023-01-25T13:01:22.649Z,15.70
2023-01-25T13:04:12.544Z,15.83
2023-01-25T13:06:55.514Z,12.93
2023-01-25T13:09:36.727Z,13.37
2023-01-25T13:12:08.689Z,16.87
2023-01-25T13:14:41.530Z,12.80
2023-01-25T13:17:25.447Z,15.33
2023-01-25T13:19:56.476Z,16.83
2023-01-25T13:23:02.285Z,14.83
2023-01-25T13:25:32.815Z,12.43
2023-01-25T13:28:43.597Z,15.00
2023-01-25T13:31:52.481Z,13.00
2023-01-25T13:35:00.627Z,13.53
2023-01-25T13:37:33.093Z,30.80
2023-01-25T13:40:27.039Z,15.03
2023-01-25T13:43:05.247Z,13.40
2023-01-25T13:45:42.429Z,13.70
2023-01-25T13:48:21.844Z,13.17
2023-01-25T13:50:57.820Z,14.13
2023-01-25T13:53:36.001Z,14.93
2023-01-25T13:56:36.215Z,14.97
2023-01-25T13:59:06.823Z,13.97
2023-01-25T14:01:39.781Z,15.90
2023-01-25T14:04:10.497Z,16.33
2023-01-25T14:06:43.315Z,15.70
2023-01-25T14:09:20.748Z,14.13
2023-01-25T14:12:00.481Z,12.70
2023-01-25T14:14:36.139Z,16.93
2023-01-25T14:17:21.168Z,15.47
2023-01-25T14:19:57.800Z,16.93
2023-01-25T14:22:30.453Z,14.67
2023-01-25T14:25:17.105Z,16.80
2023-01-25T14:27:54.022Z,16.07
2023-01-25T14:30:27.780Z,14.50
2023-01-25T14:33:03.487Z,17.30
2023-01-25T14:35:42.850Z,17.63
2023-01-25T14:38:32.183Z,15.00
2023-01-25T14:41:14.082Z,16.13
2023-01-25T14:43:53.541Z,14.50
2023-01-25T14:46:46.980Z,13.83
2023-01-25T14:49:28.715Z,13.37
2023-01-25T14:52:06.566Z,13.87
2023-01-25T14:54:40.652Z,13.27
2023-01-25T14:57:39.379Z,15.50
2023-01-25T15:00:27.770Z,13.10
2023-01-25T15:03:01.695Z,13.30
2023-01-25T15:05:35.089Z,13.67
2023-01-25T15:08:19.227Z,12.03
2023-01-25T15:10:58.435Z,12.60
2023-01-25T15:13:30.858Z,13.13
2023-01-25T15:16:06.425Z,14.67
2023-01-25T15:18:51.360Z,13.10
2023-01-25T15:21:26.988Z,14.33
2023-01-25T15:24:05.109Z,14.50
2023-01-25T15:26:38.616Z,15.80
2023-01-25T15:29:17.412Z,14.13
2023-01-25T15:31:53.552Z,13.50
2023-01-25T15:34:30.467Z,13.97
2023-01-25T15:37:00.924Z,12.50
2023-01-25T15:39:32.739Z,13.27
2023-01-25T15:42:03.205Z,11.87
2023-01-25T15:44:33.528Z,11.70
2023-01-25T15:47:06.640Z,13.00
2023-01-25T15:49:39.712Z,14.30
2023-01-25T15:52:12.842Z,13.50
2023-01-25T15:54:51.792Z,11.53
2023-01-25T15:57:31.416Z,12.20
2023-01-25T16:00:02.794Z,12.97
2023-01-25T16:02:37.376Z,11.37
2023-01-25T16:05:08.644Z,11.97
2023-01-25T16:07:42.904Z,13.17
2023-01-25T16:10:24.562Z,13.17
2023-01-25T16:12:54.863Z,13.03
2023-01-25T16:15:25.140Z,12.57
2023-01-25T16:17:58.198Z,12.33
2023-01-25T16:20:28.547Z,12.73
2023-01-25T16:22:58.713Z,14.83
2023-01-25T16:25:29.140Z,12.77
2023-01-25T16:27:59.676Z,13.17
2023-01-25T16:30:33.017Z,12.07
2023-01-25T16:33:06.240Z,13.90
2023-01-25T16:35:36.826Z,10.63
2023-01-25T16:38:07.068Z,13.90
2023-01-25T16:40:39.939Z,11.53
2023-01-25T16:43:11.829Z,11.47
2023-01-25T16:45:44.831Z,13.03
2023-01-25T16:48:18.702Z,10.53
2023-01-25T16:50:53.652Z,12.43
2023-01-25T16:53:24.221Z,11.93
2023-01-25T16:55:54.632Z,10.87
2023-01-25T16:58:25.128Z,11.10
2023-01-25T17:00:55.468Z,11.00
2023-01-25T17:03:29.467Z,12.40
2023-01-25T17:06:01.014Z,12.93
2023-01-25T17:08:31.347Z,9.30
2023-01-25T17:11:10.694Z,8.33
2023-01-25T17:13:41.349Z,10.53
2023-01-25T17:16:11.840Z,10.23
2023-01-25T17:18:57.853Z,10.77
2023-01-25T17:21:30.213Z,10.30
2023-01-25T17:24:03.513Z,10.50
2023-01-25T17:26:35.844Z,10.17
2023-01-25T17:29:06.195Z,12.07
2023-01-25T17:31:44.459Z,10.80
2023-01-25T17:34:22.411Z,11.67
2023-01-25T17:36:54.463Z,10.20
2023-01-25T17:39:24.980Z,10.77
2023-01-25T17:41:55.740Z,10.53
2023-01-25T17:44:27.087Z,8.90
2023-01-25T17:46:57.411Z,11.37
2023-01-25T17:49:30.991Z,11.20
2023-01-25T17:52:02.455Z,9.63
2023-01-25T17:54:32.745Z,8.80
2023-01-25T17:57:03.105Z,8.77
2023-01-25T17:59:34.066Z,10.53
2023-01-25T18:02:05.881Z,12.83
2023-01-25T18:04:41.325Z,11.60
2023-01-25T18:07:11.536Z,11.80
2023-01-25T18:09:41.874Z,11.57
2023-01-25T18:12:13.167Z,11.33
2023-01-25T18:14:45.564Z,12.07
2023-01-25T18:17:16.072Z,13.57
2023-01-25T18:19:49.239Z,13.80
2023-01-25T18:22:20.089Z,11.20
2023-01-25T18:24:50.651Z,10.33
2023-01-25T18:27:24.793Z,11.73
2023-01-25T18:30:03.624Z,10.90
2023-01-25T18:32:35.324Z,11.07
2023-01-25T18:35:09.679Z,10.13
2023-01-25T18:37:43.604Z,12.80
2023-01-25T18:40:18.874Z,11.63
2023-01-25T18:42:49.475Z,12.53
2023-01-25T18:45:20.300Z,11.10
2023-01-25T18:47:50.594Z,13.97
2023-01-25T18:50:24.081Z,11.63
2023-01-25T18:52:55.801Z,11.13
2023-01-25T18:55:27.817Z,11.20
2023-01-25T18:58:04.062Z,11.10
2023-01-25T19:00:34.588Z,12.63
2023-01-25T19:03:04.739Z,10.93
2023-01-25T19:05:38.086Z,11.97
2023-01-25T19:08:08.837Z,9.93
2023-01-25T19:10:39.265Z,10.03
2023-01-25T19:13:09.865Z,10.43
2023-01-25T19:15:41.328Z,10.83
2023-01-25T19:18:11.913Z,11.17
2023-01-25T19:20:45.430Z,10.10
2023-01-25T19:23:15.695Z,8.83
2023-01-25T19:25:45.759Z,12.03
2023-01-25T19:28:15.967Z,10.47
2023-01-25T19:30:46.151Z,9.23
2023-01-25T19:33:16.740Z,9.63
2023-01-25T19:35:49.841Z,9.63
2023-01-25T19:38:20.041Z,10.23
2023-01-25T19:40:50.452Z,10.10
2023-01-25T19:43:20.763Z,8.57
2023-01-25T19:45:51.066Z,10.70
2023-01-25T19:48:21.339Z,7.93
2023-01-25T19:50:54.129Z,7.43
2023-01-25T19:53:24.493Z,8.30
2023-01-25T19:55:54.703Z,12.00
2023-01-25T19:58:29.523Z,13.93
2023-01-25T20:01:07.508Z,10.90
2023-01-25T20:03:38.308Z,12.97
2023-01-25T20:06:13.572Z,10.20
2023-01-25T20:08:47.638Z,8.90
2023-01-25T20:11:22.048Z,9.73
2023-01-25T20:13:55.200Z,10.70
2023-01-25T20:16:27.465Z,6.30
2023-01-25T20:18:59.588Z,9.67
2023-01-25T20:21:35.448Z,9.87
2023-01-25T20:24:10.659Z,9.73
2023-01-25T20:26:44.145Z,22.20
2023-01-25T20:29:15.725Z,14.27
2023-01-25T20:31:49.145Z,11.90
2023-01-25T20:34:22.425Z,12.83
2023-01-25T20:36:55.731Z,12.90
2023-01-25T20:39:26.359Z,9.30
2023-01-25T20:41:58.600Z,10.73
2023-01-25T20:44:30.076Z,9.90
2023-01-25T20:47:00.628Z,8.67
2023-01-25T20:49:32.121Z,9.67
2023-01-25T20:52:05.587Z,9.37
2023-01-25T20:54:36.127Z,9.90
2023-01-25T20:57:06.583Z,10.77
2023-01-25T20:59:37.126Z,10.67
2023-01-25T21:02:07.441Z,11.30
2023-01-25T21:04:37.786Z,12.00
2023-01-25T21:07:13.375Z,10.60
2023-01-25T21:09:43.583Z,9.60
2023-01-25T21:12:14.777Z,10.20
2023-01-25T21:14:45.003Z,9.40
2023-01-25T21:17:15.752Z,9.60
2023-01-25T21:19:46.036Z,11.00
2023-01-25T21:22:19.644Z,10.10
2023-01-25T21:24:49.728Z,9.67
2023-01-25T21:27:20.013Z,10.57
2023-01-25T21:29:50.099Z,10.40
2023-01-25T21:32:20.834Z,8.83
2023-01-25T21:34:51.206Z,9.60
2023-01-25T21:37:24.315Z,10.60
2023-01-25T21:39:54.551Z,10.60
2023-01-25T21:42:24.587Z,11.83
2023-01-25T21:45:07.153Z,10.00
2023-01-25T21:47:37.466Z,11.03
2023-01-25T21:50:20.925Z,10.57
2023-01-25T21:52:53.755Z,9.50
2023-01-25T21:55:24.462Z,10.60
2023-01-25T21:57:54.729Z,10.73
2023-01-25T22:00:25.280Z,11.47
2023-01-25T22:02:55.373Z,11.50
2023-01-25T22:05:25.814Z,10.67
2023-01-25T22:07:58.626Z,11.13
2023-01-25T22:10:29.295Z,10.07
2023-01-25T22:12:59.621Z,10.50
2023-01-25T22:15:29.903Z,10.37
2023-01-25T22:18:00.307Z,9.40
2023-01-25T22:20:30.742Z,10.60
2023-01-25T22:23:03.667Z,10.13
2023-01-25T22:25:34.022Z,12.13
2023-01-25T22:28:07.700Z,11.97
2023-01-25T22:30:38.140Z,11.57
2023-01-25T22:33:08.527Z,11.90
2023-01-25T22:35:38.719Z,11.30
2023-01-25T22:38:11.427Z,10.00
2023-01-25T22:40:41.480Z,11.40
2023-01-25T22:43:11.572Z,9.27
2023-01-25T22:45:42.078Z,10.70
2023-01-25T22:48:12.411Z,10.10
2023-01-25T22:50:42.833Z,10.20
2023-01-25T22:53:15.949Z,11.40
2023-01-25T22:55:46.152Z,11.30
2023-01-25T22:58:16.251Z,10.57
2023-01-25T23:00:46.458Z,12.13
2023-01-25T23:03:16.887Z,11.03
2023-01-25T23:05:47.233Z,11.77
2023-01-25T23:08:20.032Z,10.63
2023-01-25T23:10:50.458Z,12.10
2023-01-25T23:13:20.871Z,9.27
2023-01-25T23:15:51.058Z,10.30
2023-01-25T23:18:36.459Z,13.27
2023-01-25T23:21:07.155Z,10.70
2023-01-25T23:23:43.421Z,10.40
2023-01-25T23:26:14.490Z,10.27
2023-01-25T23:28:50.934Z,11.13
2023-01-25T23:31:22.675Z,8.90
2023-01-25T23:33:55.015Z,10.90
2023-01-25T23:36:27.955Z,9.30
2023-01-25T23:39:02.016Z,12.73
2023-01-25T23:41:33.864Z,10.20
2023-01-25T23:44:04.319Z,14.03
2023-01-25T23:46:34.645Z,11.40
2023-01-25T23:49:04.710Z,12.40
2023-01-25T23:51:34.887Z,11.37
2023-01-25T23:54:07.918Z,9.90
2023-01-25T23:56:38.089Z,12.50
2023-01-25T23:59:08.528Z,12.17
